Cedar Bluff, VA

1:45 AM EST on December 06, 2016 (GMT -0500)
Tazewell County

Weather History for KJFZ - April, 2014

Change the Weather History Date:

Tuesday, April 29, 2014

  Actual Average (KBLF) Record (KBLF)
Temperature  
Mean Temperature 64 °F 59 °F  
Max Temperature 68 °F 69 °F 83 °F (1996)
Min Temperature 59 °F 49 °F 32 °F (1979)
Degree Days  
Heating Degree Days 2 7  
Month to date heating degree days 314  
Since 1 July heating degree days 4423  
Cooling Degree Days 0 1  
Month to date cooling degree days 27  
Year to date cooling degree days 31  
Growing Degree Days 14 (Base 50)    
Moisture  
Dew Point 57 °F    
Average Humidity 77    
Maximum Humidity 90    
Minimum Humidity 64    
Precipitation  
Precipitation 0.09 in 0.12 in 1.36 in (1968)
Month to date precipitation 3.22  
Year to date precipitation 12.39  
Snow  
Snow 0.00 in - - ()
Month to date snowfall  
Since 1 July snowfall  
Snow Depth -    
Sea Level Pressure  
Sea Level Pressure 29.86 in    
Wind  
Wind Speed 10 mph (SE)    
Max Wind Speed 17 mph    
Max Gust Speed 26 mph    
Visibility 10 miles    
Events Rain    
T = Trace of Precipitation, MM = Missing Value Source: NWS Daily Summary

Daily Weather History Graph

Daily Weather History Graph

Search for Another Location

Airport or City:

Trip Planner

Search our weather history database for the weather conditions in past years. The results will help you decide how hot, cold, wet, or windy it might be!

Date:

Astronomy

Apr. 29, 2014 Rise Set
Actual Time 6:35 AM EDT 8:14 PM EDT
Civil Twilight 6:07 AM EDT 8:42 PM EDT
Nautical Twilight 5:33 AM EDT 9:15 PM EDT
Astronomical Twilight 4:58 AM EDT 9:51 PM EDT
Moon 6:52 AM EDT (4/29) 8:52 PM EDT (4/29)
Length of Visible Light 14h 35m
Length of Day
13h 39m
New Moon, 0% of the Moon is Illuminated
Apr 29
New Moon
May 6
First Quarter
May 14
Full
May 21
Last Quarter
May 28
New

Hourly Weather History & Observations

Time (EDT) Temp. Dew Point Humidity Pressure Visibility Wind Dir Wind Speed Gust Speed Precip Events Conditions
12:15 AM 66.2 °F 58.1 °F 75% 29.86 in 10.0 mi SSE 11.5 mph 19.6 mph N/A   Clear
12:35 AM 66.2 °F 58.3 °F 76% 29.85 in 10.0 mi SE 6.9 mph - N/A   Clear
12:55 AM 66.4 °F 58.1 °F 75% 29.84 in 10.0 mi SSE 9.2 mph - N/A   Clear
1:15 AM 66.2 °F 58.3 °F 76% 29.84 in 10.0 mi SE 9.2 mph - N/A   Scattered Clouds
1:35 AM 66.0 °F 58.1 °F 76% 29.84 in 10.0 mi SE 5.8 mph - N/A   Mostly Cloudy
1:55 AM 65.3 °F 58.1 °F 77% 29.84 in 10.0 mi SE 4.6 mph - N/A   Mostly Cloudy
2:15 AM 66.4 °F 57.6 °F 73% 29.83 in 10.0 mi SE 9.2 mph - N/A   Mostly Cloudy
2:35 AM 66.4 °F 57.4 °F 73% 29.81 in 10.0 mi SSE 8.1 mph - N/A   Mostly Cloudy
2:55 AM 66.4 °F 57.7 °F 74% 29.82 in 10.0 mi SSE 5.8 mph - N/A Rain Light Rain
3:15 AM 65.7 °F 58.3 °F 77% 29.82 in 10.0 mi SSE 6.9 mph 17.3 mph N/A Rain Light Rain
3:35 AM 64.9 °F 58.6 °F 80% 29.81 in 10.0 mi SSE 9.2 mph 17.3 mph 0.01 in Rain Light Rain
3:55 AM 64.8 °F 58.3 °F 79% 29.80 in 10.0 mi SE 9.2 mph - 0.01 in Rain Light Rain
4:15 AM 64.4 °F 58.1 °F 80% 29.79 in 10.0 mi SE 10.4 mph 17.3 mph N/A   Mostly Cloudy
4:35 AM 64.9 °F 57.6 °F 77% 29.81 in 10.0 mi SSE 11.5 mph 16.1 mph N/A   Mostly Cloudy
4:55 AM 65.3 °F 57.6 °F 76% 29.79 in 10.0 mi SE 8.1 mph 16.1 mph N/A   Overcast
5:15 AM 64.9 °F 57.7 °F 77% 29.77 in 10.0 mi SE 10.4 mph 17.3 mph N/A   Overcast
5:35 AM 64.9 °F 57.7 °F 77% 29.76 in 10.0 mi SE 12.7 mph 20.7 mph N/A   Scattered Clouds
5:55 AM 64.8 °F 57.6 °F 77% 29.77 in 10.0 mi SE 6.9 mph - N/A   Mostly Cloudy
6:15 AM 65.1 °F 57.4 °F 76% 29.78 in 10.0 mi SE 13.8 mph 23.0 mph N/A   Overcast
6:35 AM 64.8 °F 57.4 °F 77% 29.79 in 10.0 mi SE 10.4 mph 18.4 mph N/A Rain Rain
6:55 AM 63.3 °F 58.3 °F 84% 29.80 in 10.0 mi SSE 10.4 mph 20.7 mph 0.01 in Rain Light Rain
7:15 AM 63.7 °F 59.0 °F 85% 29.80 in 10.0 mi SSE 10.4 mph 21.9 mph N/A Rain Rain
7:35 AM 64.0 °F 58.8 °F 83% 29.80 in 10.0 mi SSE 8.1 mph 19.6 mph N/A   Drizzle
7:55 AM 64.4 °F 58.6 °F 82% 29.81 in 10.0 mi SSE 10.4 mph 17.3 mph N/A Rain Rain
8:15 AM 63.7 °F 58.5 °F 83% 29.81 in 10.0 mi SE 8.1 mph 17.3 mph N/A Rain Light Rain
8:35 AM 62.6 °F 58.3 °F 86% 29.82 in 10.0 mi ESE 11.5 mph 19.6 mph 0.01 in   Drizzle
8:55 AM 62.1 °F 57.7 °F 86% 29.83 in 10.0 mi SE 11.5 mph 20.7 mph 0.01 in Rain Light Rain
9:15 AM 61.7 °F 57.2 °F 85% 29.85 in 7.0 mi SE 12.7 mph 18.4 mph N/A Rain Rain
9:35 AM 60.1 °F 57.2 °F 90% 29.85 in 10.0 mi SE 12.7 mph 18.4 mph 0.02 in Rain Rain
9:55 AM 59.9 °F 56.7 °F 89% 29.85 in 10.0 mi ESE 11.5 mph 18.4 mph 0.02 in   Drizzle
10:15 AM 60.3 °F 57.2 °F 90% 29.85 in 10.0 mi SE 8.1 mph - N/A   Overcast
10:35 AM 60.8 °F 56.5 °F 86% 29.85 in 10.0 mi SE 10.4 mph 16.1 mph N/A   Overcast
10:55 AM 60.8 °F 56.1 °F 85% 29.86 in 10.0 mi SE 9.2 mph - N/A Rain Light Rain
11:15 AM 61.7 °F 55.9 °F 81% 29.87 in 10.0 mi SE 11.5 mph - N/A   Overcast
11:35 AM 62.2 °F 55.6 °F 79% 29.87 in 10.0 mi SE 10.4 mph 16.1 mph N/A   Overcast
11:55 AM 63.1 °F 55.9 °F 77% 29.87 in 10.0 mi SE 11.5 mph 18.4 mph N/A   Overcast
12:15 PM 63.9 °F 55.8 °F 75% 29.87 in 10.0 mi SE 13.8 mph 20.7 mph N/A   Overcast
12:35 PM 63.9 °F 55.6 °F 74% 29.87 in 10.0 mi SE 13.8 mph 23.0 mph N/A   Overcast
12:55 PM 66.6 °F 56.7 °F 70% 29.87 in 10.0 mi ESE 12.7 mph 20.7 mph N/A   Mostly Cloudy
1:15 PM 65.3 °F 55.6 °F 71% 29.87 in 10.0 mi SE 12.7 mph 21.9 mph N/A   Mostly Cloudy
1:35 PM 62.4 °F 56.1 °F 80% 29.87 in 7.0 mi SE 11.5 mph 19.6 mph N/A Rain Light Rain
1:55 PM 63.1 °F 56.3 °F 78% 29.86 in 10.0 mi ESE 9.2 mph 19.6 mph N/A   Light Drizzle
2:15 PM 66.0 °F 56.3 °F 71% 29.86 in 10.0 mi ESE 13.8 mph 23.0 mph N/A   Overcast
2:35 PM 66.7 °F 56.1 °F 69% 29.85 in 10.0 mi SE 13.8 mph 23.0 mph N/A   Mostly Cloudy
2:55 PM 67.5 °F 55.9 °F 66% 29.87 in 10.0 mi SE 9.2 mph 16.1 mph N/A   Scattered Clouds
3:15 PM 67.8 °F 56.3 °F 67% 29.88 in 10.0 mi SE 9.2 mph 17.3 mph N/A   Scattered Clouds
3:35 PM 68.4 °F 55.9 °F 64% 29.88 in 10.0 mi ESE 12.7 mph - N/A   Mostly Cloudy
3:55 PM 67.5 °F 55.6 °F 66% 29.88 in 10.0 mi East 6.9 mph 17.3 mph N/A   Mostly Cloudy
4:15 PM 66.0 °F 55.2 °F 68% 29.88 in 10.0 mi East 11.5 mph 18.4 mph N/A   Mostly Cloudy
4:35 PM 64.9 °F 55.0 °F 70% 29.90 in 10.0 mi ESE 9.2 mph 18.4 mph N/A   Overcast
4:55 PM 62.8 °F 56.8 °F 81% 29.91 in 10.0 mi East 5.8 mph - 0.02 in Rain Light Rain
5:15 PM 62.1 °F 57.2 °F 84% 29.91 in 7.0 mi East 4.6 mph - 0.01 in Rain Rain
5:35 PM 62.8 °F 56.7 °F 80% 29.90 in 10.0 mi SE 8.1 mph - 0.02 in   Mostly Cloudy
5:55 PM 64.2 °F 57.0 °F 77% 29.90 in 10.0 mi ESE 10.4 mph 17.3 mph 0.02 in   Scattered Clouds
6:35 PM 66.2 °F 56.1 °F 70% 29.88 in 10.0 mi SE 4.6 mph - N/A   Clear
6:55 PM 64.9 °F 55.8 °F 72% 29.89 in 10.0 mi East 6.9 mph - N/A   Clear
7:15 PM 65.1 °F 56.1 °F 73% 29.87 in 10.0 mi ESE 10.4 mph 16.1 mph N/A   Clear
7:35 PM 64.6 °F 55.9 °F 74% 29.89 in 10.0 mi ESE 9.2 mph - N/A   Clear
7:55 PM 64.0 °F 56.3 °F 76% 29.88 in 10.0 mi ESE 6.9 mph - N/A   Clear
8:15 PM 63.5 °F 56.3 °F 77% 29.88 in 10.0 mi SE 13.8 mph 18.4 mph N/A   Clear
8:35 PM 63.1 °F 56.3 °F 78% 29.89 in 10.0 mi SE 13.8 mph 21.9 mph N/A   Clear
8:55 PM 63.9 °F 56.3 °F 76% 29.89 in 10.0 mi SE 10.4 mph 18.4 mph N/A   Clear
9:15 PM 65.3 °F 56.3 °F 73% 29.90 in 10.0 mi SE 17.3 mph 26.5 mph N/A   Clear
9:35 PM 64.4 °F 55.9 °F 74% 29.91 in 10.0 mi SE 17.3 mph 24.2 mph N/A   Clear
10:15 PM 63.9 °F 56.1 °F 76% 29.92 in 10.0 mi SE 12.7 mph 18.4 mph N/A   Clear
10:35 PM 63.5 °F 56.3 °F 77% 29.94 in 10.0 mi SE 12.7 mph 20.7 mph N/A   Scattered Clouds
10:55 PM 63.0 °F 56.3 °F 79% 29.94 in 10.0 mi SE 12.7 mph 20.7 mph N/A   Scattered Clouds
11:15 PM 62.8 °F 55.9 °F 78% 29.94 in 10.0 mi SE 13.8 mph 20.7 mph N/A   Scattered Clouds
11:35 PM 62.4 °F 55.8 °F 79% 29.94 in 10.0 mi SE 13.8 mph 25.3 mph N/A   Scattered Clouds
11:55 PM 62.1 °F 55.6 °F 79% 29.94 in 10.0 mi SE 15.0 mph 21.9 mph N/A   Clear